Bookmark and Share
Track history (hours):
 

Naniwa Maru No.21

Last reported at 2014-Apr-23 14:10 UTC. Time now 2014-Apr-25 05:57 UTC.
Position N 34°22' E 135°00'.

Length 71 m; draft 5.2 m.

Type: Tanker. MMSI: 431301595.

NotesDate/timePositionNaut miles runAvg speedWind from/ knotsBaromVisibWave heightAir tempDewpointWater temp
2014-Apr-23 14:10N 34°22' E 135°00'813.6
2014-Apr-23 13:33N 34°27' E 135°08'1313.0
2014-Apr-23 12:33N 34°33' E 135°22'3 2.5
2014-Apr-23 11:18N 34°33' E 135°26'0 0.0
2014-Apr-23 10:30N 34°33' E 135°26'0 0.0
2014-Apr-23 09:24N 34°33' E 135°26'0 0.0
2014-Apr-23 08:30N 34°33' E 135°26'0 0.0
2014-Apr-23 07:24N 34°33' E 135°26'0 0.0
2014-Apr-23 06:24N 34°33' E 135°26'0 0.0
2014-Apr-23 05:30N 34°33' E 135°26'0 0.2
2014-Apr-23 04:15N 34°33' E 135°26'5 7.1
2014-Apr-23 03:33N 34°32' E 135°20'0 0.2
2014-Apr-23 02:17N 34°32' E 135°20'0 0.0
2014-Apr-23 01:17N 34°32' E 135°20'0 0.0
2014-Apr-23 00:17N 34°32' E 135°20'0 0.0
2014-Apr-22 23:23N 34°32' E 135°20'0 0.1
2014-Apr-22 22:29N 34°32' E 135°19'0 0.0
2014-Apr-22 21:29N 34°32' E 135°19'0 0.0
2014-Apr-22 20:05N 34°32' E 135°19'0 0.0
2014-Apr-22 16:29N 34°32' E 135°19'0 0.0
2014-Apr-22 15:11N 34°32' E 135°19'0 0.0
2014-Apr-22 14:29N 34°32' E 135°19'0 0.0
2014-Apr-22 13:29N 34°32' E 135°19'0 0.0
2014-Apr-22 12:29N 34°32' E 135°20'0 0.0
2014-Apr-22 11:29N 34°32' E 135°20'0 0.0
2014-Apr-22 10:29N 34°32' E 135°20'0 0.0
2014-Apr-22 09:33N 34°32' E 135°20'2 1.6
2014-Apr-22 08:33N 34°31' E 135°18'1413.2
2014-Apr-22 07:31N 34°22' E 135°05'1010.5
2014-Apr-22 06:33N 34°12' E 135°03'6 0.9
2014-Apr-21 23:33N 34°07' E 135°07'0 0.0
2014-Apr-21 22:32N 34°08' E 135°07'0 0.1
2014-Apr-21 21:33N 34°07' E 135°07'0 0.0
2014-Apr-21 20:17N 34°08' E 135°07'0 0.1
2014-Apr-21 19:33N 34°07' E 135°07'0 0.0
2014-Apr-21 18:24N 34°07' E 135°07'0 0.0
2014-Apr-21 17:32N 34°07' E 135°07'0 0.0
2014-Apr-21 16:31N 34°07' E 135°07'0 0.0
2014-Apr-21 11:29N 34°07' E 135°07'0 0.0
2014-Apr-21 09:26N 34°07' E 135°07'5 2.5
2014-Apr-21 07:33N 34°11' E 135°04'1211.2
2014-Apr-21 06:31N 34°23' E 135°05'1313.3
2014-Apr-21 05:32N 34°31' E 135°18'5 0.6
2014-Apr-20 21:33N 34°33' E 135°23'3 2.3
2014-Apr-20 20:10N 34°32' E 135°19'0 0.0
2014-Apr-20 19:33N 34°32' E 135°19'0 0.0
2014-Apr-20 18:33N 34°32' E 135°19'0 0.0
2014-Apr-20 17:33N 34°32' E 135°19'0 0.0
2014-Apr-20 16:33N 34°32' E 135°19'0 0.0
2014-Apr-20 15:33N 34°32' E 135°19'0 0.0
2014-Apr-20 14:33N 34°32' E 135°19'0 0.0
2014-Apr-20 13:33N 34°32' E 135°19'0 0.0
2014-Apr-20 12:33N 34°32' E 135°19'0 0.0
2014-Apr-20 11:33N 34°32' E 135°19'0 0.0
2014-Apr-20 10:33N 34°32' E 135°19'0 0.0
2014-Apr-20 09:33N 34°32' E 135°19'1 0.8
2014-Apr-20 08:33N 34°31' E 135°18'1312.9
2014-Apr-20 07:33N 34°23' E 135°06'11 9.7
2014-Apr-20 06:26N 34°13' E 135°02'7 0.3
2014-Apr-19 07:30N 34°07' E 135°08'0 0.0
2014-Apr-19 06:28N 34°07' E 135°08'0 0.0
2014-Apr-19 05:27N 34°07' E 135°08'0 0.0
2014-Apr-19 03:32N 34°07' E 135°08'2 0.4
2014-Apr-18 23:34N 34°09' E 135°08'0 0.1
2014-Apr-18 22:31N 34°09' E 135°08'0 0.0
2014-Apr-18 21:28N 34°09' E 135°08'0 0.0
2014-Apr-18 20:34N 34°09' E 135°08'0 0.0
2014-Apr-18 19:33N 34°09' E 135°08'0 0.0
2014-Apr-18 18:31N 34°09' E 135°08'0 0.0
2014-Apr-18 17:33N 34°09' E 135°08'0 0.0
2014-Apr-18 16:32N 34°09' E 135°08'0 0.1
2014-Apr-18 15:33N 34°09' E 135°08'0 0.0
2014-Apr-18 14:34N 34°09' E 135°08'0 0.0
2014-Apr-18 13:14N 34°09' E 135°08'0 0.0
2014-Apr-18 12:23N 34°09' E 135°08'2 2.8
2014-Apr-18 11:33N 34°10' E 135°06'1310.7
2014-Apr-18 10:21N 34°23' E 135°02'1113.2
2014-Apr-18 09:32N 34°28' E 135°12'1212.0
2014-Apr-18 08:33N 34°33' E 135°26'0 0.0
2014-Apr-18 04:17N 34°33' E 135°26'0 0.0
2014-Apr-18 03:32N 34°33' E 135°26'2 0.8
2014-Apr-18 01:31N 34°33' E 135°24'8 8.1
2014-Apr-18 00:33N 34°34' E 135°14'1211.9
2014-Apr-17 23:32N 34°37' E 135°00'23412.3
2014-Apr-17 04:33N 33°49' E 130°23'1111.4
2014-Apr-17 03:33N 33°39' E 130°18'4 4.2
2014-Apr-17 02:32N 33°36' E 130°23'0 0.0
2014-Apr-17 01:33N 33°36' E 130°23'0 0.0
2014-Apr-17 00:32N 33°36' E 130°23'0 0.0
2014-Apr-16 23:32N 33°36' E 130°23'0 0.5
2014-Apr-16 22:33N 33°37' E 130°23'2 1.6
2014-Apr-16 21:32N 33°38' E 130°21'0 0.1
2014-Apr-16 20:33N 33°38' E 130°21'0 0.0
2014-Apr-16 19:33N 33°38' E 130°21'9 9.2
2014-Apr-16 18:33N 33°46' E 130°17'  

Dump ship's entire track history

sailing weather and tide predictions

Naniwa Maru No.21 — JG5648 — position and weather